Time;durP1;ratioP1;P1;durP2;ratioP2;P2;SDS_P1;SDS_P2;PMS_P1;PMS_P2;Temp;Humidity;BMP_temperature;BMP_pressure;BME280_temperature;BME280_humidity;BME280_pressure;Samples;Min_cycle;Max_cycle;Signal;HPM_P1;HPM_P2
2022/05/21 00:02:13;;;;;;;3.20;2.28;;;;;;;;;;5012578;28;20026;-65
2022/05/21 00:04:42;;;;;;;2.90;2.22;;;;;;;;;;5011298;28;20037;-65
2022/05/21 00:07:11;;;;;;;3.33;2.45;;;;;;;;;;5012167;28;20370;-64
2022/05/21 00:09:38;;;;;;;2.22;2.03;;;;;;;;;;4993857;28;20498;-65
2022/05/21 00:12:05;;;;;;;2.95;2.47;;;;;;;;;;5011892;28;20040;-65
2022/05/21 00:14:31;;;;;;;3.30;2.20;;;;;;;;;;5010915;28;20117;-63
2022/05/21 00:16:57;;;;;;;3.08;2.42;;;;;;;;;;5012230;28;20073;-66
2022/05/21 00:19:22;;;;;;;2.65;2.25;;;;;;;;;;5012062;28;20474;-65
2022/05/21 00:21:49;;;;;;;3.35;2.30;;;;;;;;;;5011350;28;20038;-65
2022/05/21 00:24:15;;;;;;;2.90;2.10;;;;;;;;;;5011578;28;20374;-65
2022/05/21 00:26:41;;;;;;;2.22;1.98;;;;;;;;;;5011112;28;20569;-65
2022/05/21 00:29:07;;;;;;;2.35;2.05;;;;;;;;;;5012125;28;20022;-65
2022/05/21 00:31:33;;;;;;;3.22;1.92;;;;;;;;;;5011148;28;20398;-64
2022/05/21 00:33:59;;;;;;;2.40;1.77;;;;;;;;;;5011575;28;20041;-65
2022/05/21 00:36:25;;;;;;;2.85;2.20;;;;;;;;;;5011459;28;20430;-66
2022/05/21 00:38:51;;;;;;;3.88;2.08;;;;;;;;;;5011186;28;20552;-65
2022/05/21 00:41:18;;;;;;;1.98;1.60;;;;;;;;;;5011470;28;20038;-65
2022/05/21 00:43:50;;;;;;;2.97;1.85;;;;;;;;;;5010764;28;20034;-65
2022/05/21 00:46:24;;;;;;;2.50;1.80;;;;;;;;;;5011495;28;20076;-65
2022/05/21 00:48:53;;;;;;;2.50;1.92;;;;;;;;;;5010872;28;20093;-64
2022/05/21 00:51:21;;;;;;;1.70;1.50;;;;;;;;;;5011468;28;20403;-65
2022/05/21 00:53:50;;;;;;;3.08;2.15;;;;;;;;;;5010827;28;20022;-65
2022/05/21 00:56:17;;;;;;;2.53;1.90;;;;;;;;;;5011769;28;20025;-65
2022/05/21 01:01:31;;;;;;;3.47;2.50;;;;;;;;;;5011175;28;20073;-65
2022/05/21 01:03:57;;;;;;;1.92;1.77;;;;;;;;;;5014581;28;20022;-65
2022/05/21 01:06:23;;;;;;;2.13;1.75;;;;;;;;;;5015214;28;20102;-65
2022/05/21 01:08:49;;;;;;;2.42;1.95;;;;;;;;;;5014883;28;20054;-65
2022/05/21 01:11:17;;;;;;;1.67;1.58;;;;;;;;;;5015214;28;20030;-65
2022/05/21 01:13:45;;;;;;;2.50;1.92;;;;;;;;;;5014629;28;20083;-65
2022/05/21 01:16:11;;;;;;;2.35;1.77;;;;;;;;;;5014990;28;20030;-65
2022/05/21 01:18:38;;;;;;;2.67;2.20;;;;;;;;;;5014561;28;20387;-64
2022/05/21 01:21:04;;;;;;;2.42;2.08;;;;;;;;;;5014870;28;20486;-65
2022/05/21 01:23:30;;;;;;;2.35;1.75;;;;;;;;;;5015404;28;20198;-65
2022/05/21 01:25:58;;;;;;;2.38;1.77;;;;;;;;;;5014508;28;20026;-65
2022/05/21 01:28:26;;;;;;;1.95;1.40;;;;;;;;;;5015295;28;20077;-65
2022/05/21 01:30:56;;;;;;;2.13;1.38;;;;;;;;;;5014072;28;20109;-65
2022/05/21 01:33:24;;;;;;;2.00;1.60;;;;;;;;;;5015269;28;20022;-65
2022/05/21 01:35:50;;;;;;;2.35;1.83;;;;;;;;;;5014121;28;20034;-65
2022/05/21 01:38:18;;;;;;;2.05;1.80;;;;;;;;;;5014791;28;20025;-65
2022/05/21 01:40:44;;;;;;;1.70;1.60;;;;;;;;;;5014072;28;20060;-65
2022/05/21 01:45:55;;;;;;;2.28;1.63;;;;;;;;;;5014267;28;20168;-65
2022/05/21 01:48:23;;;;;;;1.60;1.42;;;;;;;;;;5014974;28;20041;-65
2022/05/21 01:50:50;;;;;;;2.47;1.88;;;;;;;;;;5013756;28;20156;-65
2022/05/21 01:53:16;;;;;;;2.65;1.85;;;;;;;;;;5014641;28;20022;-65
2022/05/21 01:55:43;;;;;;;2.10;1.50;;;;;;;;;;5013577;28;20088;-65
2022/05/21 01:58:09;;;;;;;2.25;1.80;;;;;;;;;;5014712;28;20450;-66
2022/05/21 02:00:35;;;;;;;2.58;2.15;;;;;;;;;;5014138;28;20119;-62
2022/05/21 02:03:02;;;;;;;2.53;2.20;;;;;;;;;;5014238;28;20025;-65
2022/05/21 02:05:28;;;;;;;2.20;1.65;;;;;;;;;;5014454;28;20036;-66
2022/05/21 02:07:54;;;;;;;1.75;1.48;;;;;;;;;;5013583;28;20026;-65
2022/05/21 02:10:20;;;;;;;3.38;1.73;;;;;;;;;;5014488;28;20029;-64
2022/05/21 02:12:46;;;;;;;2.10;1.60;;;;;;;;;;5013665;28;20022;-65
2022/05/21 02:15:12;;;;;;;2.50;1.70;;;;;;;;;;5014463;28;20018;-64
2022/05/21 02:17:38;;;;;;;2.00;1.80;;;;;;;;;;5013161;28;20116;-62
2022/05/21 02:20:04;;;;;;;2.22;1.70;;;;;;;;;;5014035;28;20416;-65
2022/05/21 02:22:31;;;;;;;1.90;1.40;;;;;;;;;;5014040;28;20022;-65
2022/05/21 02:24:57;;;;;;;1.98;1.50;;;;;;;;;;5013145;28;20672;-65
2022/05/21 02:27:22;;;;;;;1.70;1.60;;;;;;;;;;5014005;28;20030;-64
2022/05/21 02:29:49;;;;;;;1.83;1.60;;;;;;;;;;5013481;28;20021;-64
2022/05/21 02:32:15;;;;;;;1.40;1.30;;;;;;;;;;5014461;28;20463;-65
2022/05/21 02:34:42;;;;;;;1.80;1.40;;;;;;;;;;5013311;28;20105;-64
2022/05/21 02:39:53;;;;;;;1.60;1.38;;;;;;;;;;5013187;28;20072;-64
2022/05/21 02:45:04;;;;;;;5.45;1.77;;;;;;;;;;5013388;28;20041;-64
2022/05/21 02:47:31;;;;;;;2.28;1.63;;;;;;;;;;5013849;28;20037;-65
2022/05/21 02:49:57;;;;;;;2.40;2.17;;;;;;;;;;5013196;28;20561;-65
2022/05/21 02:52:23;;;;;;;1.95;1.52;;;;;;;;;;5013371;28;20471;-65
2022/05/21 02:54:49;;;;;;;2.10;1.40;;;;;;;;;;5012715;28;20132;-62
2022/05/21 02:57:15;;;;;;;1.95;1.35;;;;;;;;;;5013062;28;20033;-64
2022/05/21 02:59:42;;;;;;;2.38;1.65;;;;;;;;;;5012690;28;20030;-63
2022/05/21 03:02:08;;;;;;;2.05;1.63;;;;;;;;;;5013173;28;20474;-63
2022/05/21 03:04:34;;;;;;;1.80;1.58;;;;;;;;;;5013286;28;20034;-65
2022/05/21 03:07:00;;;;;;;1.92;1.70;;;;;;;;;;5012422;28;20698;-64
2022/05/21 03:12:12;;;;;;;1.60;1.50;;;;;;;;;;5013148;28;20033;-62
2022/05/21 03:14:39;;;;;;;2.65;1.60;;;;;;;;;;5013082;28;20041;-62
2022/05/21 03:17:05;;;;;;;1.55;1.20;;;;;;;;;;5012858;28;20101;-63
2022/05/21 03:19:32;;;;;;;1.52;1.42;;;;;;;;;;5013260;28;20042;-65
2022/05/21 03:21:59;;;;;;;1.40;1.30;;;;;;;;;;5012154;28;20049;-66
2022/05/21 03:24:25;;;;;;;2.63;1.70;;;;;;;;;;5012524;28;20498;-65
2022/05/21 03:26:51;;;;;;;2.72;1.90;;;;;;;;;;5011753;28;20036;-63
2022/05/21 03:29:18;;;;;;;1.58;1.42;;;;;;;;;;5012788;28;20061;-64
2022/05/21 03:31:44;;;;;;;3.20;1.50;;;;;;;;;;5012336;28;20064;-64
2022/05/21 03:34:10;;;;;;;1.88;1.50;;;;;;;;;;5012555;28;20030;-65
2022/05/21 03:36:36;;;;;;;1.45;1.30;;;;;;;;;;5012905;28;20025;-65
2022/05/21 03:39:02;;;;;;;1.73;1.35;;;;;;;;;;5011871;28;20013;-65
2022/05/21 03:44:32;;;;;;;1.85;1.42;;;;;;;;;;5013042;28;20126;-65
2022/05/21 03:46:58;;;;;;;2.47;1.25;;;;;;;;;;5012018;28;20073;-65
2022/05/21 03:49:25;;;;;;;1.20;1.10;;;;;;;;;;5012564;28;20072;-64
2022/05/21 03:51:51;;;;;;;2.05;1.30;;;;;;;;;;4994106;28;20446;-64
2022/05/21 03:54:17;;;;;;;1.75;1.40;;;;;;;;;;5012225;28;20029;-64
2022/05/21 03:56:42;;;;;;;2.58;1.33;;;;;;;;;;5011722;28;20057;-62
2022/05/21 03:59:08;;;;;;;1.38;1.13;;;;;;;;;;5011997;28;20075;-66
2022/05/21 04:01:34;;;;;;;1.48;1.15;;;;;;;;;;5012416;28;20034;-64
2022/05/21 04:04:00;;;;;;;2.20;1.33;;;;;;;;;;5011503;28;20922;-64
2022/05/21 04:06:27;;;;;;;1.40;1.25;;;;;;;;;;5012314;28;20030;-63
2022/05/21 04:08:53;;;;;;;1.65;1.52;;;;;;;;;;5011476;28;20375;-66
2022/05/21 04:11:19;;;;;;;1.83;1.23;;;;;;;;;;5012276;28;20036;-65
2022/05/21 04:13:45;;;;;;;2.03;1.20;;;;;;;;;;5011472;28;20041;-62
2022/05/21 04:16:11;;;;;;;1.40;1.30;;;;;;;;;;5012456;28;20033;-64
2022/05/21 04:18:37;;;;;;;1.80;1.30;;;;;;;;;;5011937;28;20034;-63
2022/05/21 04:21:03;;;;;;;3.50;1.40;;;;;;;;;;5011144;28;20168;-64
2022/05/21 04:23:29;;;;;;;1.73;1.40;;;;;;;;;;5012220;28;20029;-64
2022/05/21 04:25:55;;;;;;;1.65;1.38;;;;;;;;;;5011350;28;20467;-64
2022/05/21 04:28:21;;;;;;;1.55;1.20;;;;;;;;;;5011792;28;20037;-64
2022/05/21 04:30:47;;;;;;;1.42;1.10;;;;;;;;;;5011212;28;20026;-64
2022/05/21 04:33:13;;;;;;;1.20;1.00;;;;;;;;;;5011669;28;20038;-64
2022/05/21 04:38:23;;;;;;;1.52;1.20;;;;;;;;;;5006407;28;20068;-64
2022/05/21 04:40:49;;;;;;;2.05;1.48;;;;;;;;;;5011037;28;20034;-67
2022/05/21 04:43:15;;;;;;;1.38;1.25;;;;;;;;;;5012003;28;20022;-64
2022/05/21 04:45:41;;;;;;;1.92;1.40;;;;;;;;;;5011600;28;20092;-65
2022/05/21 04:48:08;;;;;;;2.10;1.52;;;;;;;;;;5011046;28;20041;-63
2022/05/21 04:50:35;;;;;;;2.97;1.40;;;;;;;;;;5011877;28;20101;-64
2022/05/21 04:53:01;;;;;;;2.63;1.48;;;;;;;;;;5010833;28;20036;-64
2022/05/21 04:55:27;;;;;;;1.60;1.20;;;;;;;;;;5011645;28;20018;-64
2022/05/21 04:57:53;;;;;;;1.80;1.30;;;;;;;;;;5011088;28;20022;-64
2022/05/21 05:00:19;;;;;;;2.38;1.27;;;;;;;;;;5011750;28;20456;-64
2022/05/21 05:02:45;;;;;;;2.00;1.30;;;;;;;;;;5012051;28;20025;-62
2022/05/21 05:05:12;;;;;;;1.45;1.23;;;;;;;;;;5011365;28;20127;-65
2022/05/21 05:07:38;;;;;;;1.60;1.15;;;;;;;;;;5011599;28;20489;-63
2022/05/21 05:10:05;;;;;;;1.05;0.90;;;;;;;;;;5010442;28;20092;-63
2022/05/21 05:12:32;;;;;;;5.90;1.02;;;;;;;;;;5011194;28;20501;-66
2022/05/21 05:14:58;;;;;;;3.00;0.80;;;;;;;;;;5010605;28;20065;-61
2022/05/21 05:17:24;;;;;;;2.47;0.90;;;;;;;;;;5011384;28;20033;-64
2022/05/21 05:19:54;;;;;;;2.58;1.17;;;;;;;;;;5010484;28;20022;-61
2022/05/21 05:22:20;;;;;;;1.33;0.80;;;;;;;;;;5011359;28;20034;-63
2022/05/21 05:24:46;;;;;;;0.90;0.70;;;;;;;;;;5011357;28;20030;-61
2022/05/21 05:27:12;;;;;;;2.85;0.95;;;;;;;;;;5010167;28;20065;-63
2022/05/21 05:29:38;;;;;;;1.60;0.88;;;;;;;;;;5011175;28;20109;-64
2022/05/21 05:32:05;;;;;;;1.50;1.00;;;;;;;;;;5010750;28;20109;-63
2022/05/21 05:34:31;;;;;;;0.95;0.73;;;;;;;;;;5011297;28;20037;-64
2022/05/21 05:36:57;;;;;;;0.90;0.70;;;;;;;;;;5010803;28;20409;-61
2022/05/21 05:39:23;;;;;;;1.60;0.73;;;;;;;;;;5011753;28;20038;-64
2022/05/21 05:41:51;;;;;;;3.25;0.85;;;;;;;;;;5010321;28;20042;-65
2022/05/21 05:44:17;;;;;;;3.38;0.70;;;;;;;;;;5011159;28;20041;-63
2022/05/21 05:46:42;;;;;;;1.55;1.35;;;;;;;;;;4993666;28;20133;-64
2022/05/21 05:49:09;;;;;;;1.60;0.80;;;;;;;;;;5012056;28;20022;-61
2022/05/21 05:51:35;;;;;;;1.35;0.65;;;;;;;;;;5014892;28;20160;-66
2022/05/21 05:54:01;;;;;;;1.02;0.63;;;;;;;;;;5013657;28;20026;-63
2022/05/21 05:56:27;;;;;;;1.25;0.77;;;;;;;;;;5014747;28;20033;-63
2022/05/21 06:01:38;;;;;;;0.50;0.50;;;;;;;;;;5014658;28;20064;-68
2022/05/21 06:04:04;;;;;;;0.93;0.60;;;;;;;;;;5013363;28;20391;-64
2022/05/21 06:06:31;;;;;;;1.20;0.60;;;;;;;;;;5014086;28;20037;-68
2022/05/21 06:08:57;;;;;;;1.17;0.75;;;;;;;;;;5013438;28;20422;-68
2022/05/21 06:11:23;;;;;;;2.88;0.60;;;;;;;;;;5014265;28;20030;-62
2022/05/21 06:13:49;;;;;;;2.58;0.52;;;;;;;;;;5013989;28;20391;-63
2022/05/21 06:16:16;;;;;;;1.58;0.82;;;;;;;;;;5013410;28;20105;-62
2022/05/21 06:18:42;;;;;;;0.95;0.60;;;;;;;;;;5014444;28;20030;-64
2022/05/21 06:21:09;;;;;;;2.33;0.70;;;;;;;;;;5013282;28;20026;-65
2022/05/21 06:23:35;;;;;;;1.63;0.70;;;;;;;;;;5014076;28;20057;-64
2022/05/21 06:26:02;;;;;;;3.50;0.68;;;;;;;;;;5012848;28;20068;-61
2022/05/21 06:28:31;;;;;;;1.75;0.65;;;;;;;;;;5014088;28;20418;-63
2022/05/21 06:30:57;;;;;;;2.22;0.70;;;;;;;;;;5013109;28;20034;-66
2022/05/21 06:33:25;;;;;;;1.88;0.60;;;;;;;;;;5013981;28;20030;-64
2022/05/21 06:36:01;;;;;;;1.67;0.75;;;;;;;;;;5013596;28;20049;-68
2022/05/21 06:38:27;;;;;;;0.88;0.57;;;;;;;;;;5014107;28;20025;-65
2022/05/21 06:40:53;;;;;;;1.65;0.93;;;;;;;;;;5013136;28;20037;-50
2022/05/21 06:43:20;;;;;;;1.33;0.68;;;;;;;;;;5013481;28;20017;-52
2022/05/21 06:45:46;;;;;;;1.98;0.60;;;;;;;;;;5012987;28;20133;-54
2022/05/21 06:48:12;;;;;;;1.48;0.90;;;;;;;;;;5004938;28;20060;-48
2022/05/21 06:50:39;;;;;;;2.58;0.85;;;;;;;;;;5013499;28;20050;-54
2022/05/21 06:53:07;;;;;;;4.40;0.63;;;;;;;;;;5016258;28;20026;-54
2022/05/21 06:55:34;;;;;;;1.67;0.70;;;;;;;;;;5012416;28;20022;-47
2022/05/21 06:58:00;;;;;;;2.60;0.70;;;;;;;;;;5012824;28;20101;-47
2022/05/21 07:00:26;;;;;;;1.23;0.50;;;;;;;;;;5012152;28;20033;-51
2022/05/21 07:02:53;;;;;;;1.02;0.77;;;;;;;;;;5012656;28;20057;-55
2022/05/21 07:08:05;;;;;;;1.13;0.77;;;;;;;;;;5012310;28;20061;-56
2022/05/21 07:10:32;;;;;;;1.60;0.75;;;;;;;;;;5013123;28;20068;-54
2022/05/21 07:12:58;;;;;;;2.38;0.90;;;;;;;;;;5012410;28;20018;-54
2022/05/21 07:15:24;;;;;;;2.85;0.82;;;;;;;;;;5013064;28;20421;-53
2022/05/21 07:17:50;;;;;;;1.38;0.57;;;;;;;;;;5013279;28;21787;-54
2022/05/21 07:20:19;;;;;;;1.35;0.63;;;;;;;;;;5012199;28;20042;-54
2022/05/21 07:22:47;;;;;;;0.70;0.60;;;;;;;;;;5012780;28;20127;-49
2022/05/21 07:25:15;;;;;;;1.80;1.02;;;;;;;;;;5012048;28;20064;-51
2022/05/21 07:27:41;;;;;;;0.98;0.60;;;;;;;;;;5012958;28;20089;-52
2022/05/21 07:30:08;;;;;;;1.02;0.70;;;;;;;;;;5007083;28;20109;-48
2022/05/21 07:32:34;;;;;;;0.95;0.60;;;;;;;;;;5014007;28;20033;-50
2022/05/21 07:35:05;;;;;;;1.30;0.73;;;;;;;;;;5012443;28;20018;-45
2022/05/21 07:37:31;;;;;;;1.20;0.80;;;;;;;;;;5012633;28;20030;-50
2022/05/21 07:39:57;;;;;;;1.70;0.70;;;;;;;;;;5012057;28;20041;-52
2022/05/21 07:42:23;;;;;;;1.55;0.63;;;;;;;;;;5012612;28;20025;-49
2022/05/21 07:44:50;;;;;;;0.50;0.50;;;;;;;;;;5012158;28;20018;-51
2022/05/21 07:47:16;;;;;;;1.40;0.60;;;;;;;;;;5011681;28;20596;-51
2022/05/21 07:49:42;;;;;;;0.55;0.55;;;;;;;;;;5012461;28;20029;-50
2022/05/21 07:52:08;;;;;;;2.92;1.02;;;;;;;;;;5011660;28;20420;-50
2022/05/21 07:54:35;;;;;;;0.88;0.52;;;;;;;;;;5012318;28;20029;-53
2022/05/21 07:57:02;;;;;;;1.15;0.68;;;;;;;;;;5011536;28;20076;-51
2022/05/21 07:59:28;;;;;;;2.03;0.50;;;;;;;;;;5011693;28;20029;-51
2022/05/21 08:01:54;;;;;;;1.05;0.40;;;;;;;;;;5011950;28;20034;-49
2022/05/21 08:04:20;;;;;;;1.38;0.40;;;;;;;;;;5013433;28;20048;-48
2022/05/21 08:06:47;;;;;;;1.05;0.70;;;;;;;;;;5012143;28;20101;-49
2022/05/21 08:09:13;;;;;;;1.55;0.60;;;;;;;;;;5011483;28;20026;-48
2022/05/21 08:11:39;;;;;;;1.35;0.68;;;;;;;;;;5011653;28;20026;-51
2022/05/21 08:14:05;;;;;;;1.77;0.77;;;;;;;;;;5011312;28;20054;-52
2022/05/21 08:16:32;;;;;;;2.92;1.00;;;;;;;;;;5011901;28;20072;-46
2022/05/21 08:18:58;;;;;;;1.60;0.47;;;;;;;;;;5011458;28;20029;-52
2022/05/21 08:21:24;;;;;;;1.20;0.50;;;;;;;;;;5011294;28;20444;-52
2022/05/21 08:29:19;;;;;;;0.63;0.40;;;;;;;;;;5011147;28;20088;-50
2022/05/21 08:31:45;;;;;;;0.95;0.40;;;;;;;;;;5011587;28;20426;-50
2022/05/21 08:34:11;;;;;;;1.05;0.70;;;;;;;;;;5010900;28;20025;-49
2022/05/21 08:36:38;;;;;;;1.00;0.43;;;;;;;;;;5011776;28;20427;-48
2022/05/21 08:39:04;;;;;;;0.90;0.38;;;;;;;;;;5010987;28;20422;-49
2022/05/21 08:41:31;;;;;;;0.80;0.63;;;;;;;;;;5011528;28;20064;-47
2022/05/21 08:44:19;;;;;;;1.15;0.50;;;;;;;;;;5011637;28;20026;-53
2022/05/21 08:47:07;;;;;;;1.20;0.45;;;;;;;;;;5011670;28;20052;-49
2022/05/21 08:49:39;;;;;;;1.30;0.63;;;;;;;;;;5011306;28;20493;-48
2022/05/21 08:52:08;;;;;;;0.93;0.50;;;;;;;;;;5010546;28;20632;-46
2022/05/21 08:54:37;;;;;;;1.60;0.60;;;;;;;;;;5011976;28;20034;-48
2022/05/21 08:57:04;;;;;;;0.70;0.50;;;;;;;;;;5010632;28;20109;-46
2022/05/21 08:59:32;;;;;;;2.13;0.40;;;;;;;;;;5011735;28;20038;-47
2022/05/21 09:01:59;;;;;;;4.30;0.32;;;;;;;;;;5010994;28;20061;-50
2022/05/21 09:04:26;;;;;;;0.57;0.30;;;;;;;;;;5012092;28;20032;-48
2022/05/21 09:06:55;;;;;;;1.02;0.40;;;;;;;;;;5003725;28;20100;-51
2022/05/21 09:09:28;;;;;;;1.15;0.40;;;;;;;;;;5010775;28;20022;-49
2022/05/21 09:11:58;;;;;;;0.43;0.30;;;;;;;;;;5011842;28;20036;-49
2022/05/21 09:14:34;;;;;;;3.63;1.02;;;;;;;;;;5010983;28;20014;-48
2022/05/21 09:17:00;;;;;;;1.88;0.50;;;;;;;;;;5011122;28;20080;-51
2022/05/21 09:19:34;;;;;;;1.17;0.35;;;;;;;;;;5010944;28;20494;-49
2022/05/21 09:22:02;;;;;;;0.70;0.38;;;;;;;;;;5011227;28;20034;-50
2022/05/21 09:24:40;;;;;;;0.52;0.43;;;;;;;;;;5013736;28;20073;-50
2022/05/21 09:27:21;;;;;;;0.68;0.50;;;;;;;;;;5007382;28;20026;-49
2022/05/21 09:29:47;;;;;;;1.90;0.47;;;;;;;;;;5015129;28;20022;-48
2022/05/21 09:32:19;;;;;;;2.17;0.50;;;;;;;;;;5013884;28;20538;-50
2022/05/21 09:34:45;;;;;;;0.93;0.50;;;;;;;;;;5015228;28;20030;-50
2022/05/21 09:37:17;;;;;;;1.65;0.40;;;;;;;;;;5013680;28;20034;-52
2022/05/21 09:39:43;;;;;;;1.25;0.50;;;;;;;;;;5013002;28;20133;-52
2022/05/21 09:45:26;;;;;;;1.30;0.57;;;;;;;;;;5012096;28;20041;-53
2022/05/21 09:48:04;;;;;;;0.63;0.43;;;;;;;;;;5011277;28;20029;-51
2022/05/21 09:50:31;;;;;;;3.72;0.52;;;;;;;;;;5011502;28;20053;-53
2022/05/21 09:52:57;;;;;;;0.98;0.50;;;;;;;;;;5013192;28;20045;-48
2022/05/21 09:55:28;;;;;;;0.52;0.52;;;;;;;;;;5012572;28;20029;-50
2022/05/21 09:57:55;;;;;;;0.87;0.50;;;;;;;;;;5011343;28;20029;-53
2022/05/21 10:00:24;;;;;;;2.45;0.45;;;;;;;;;;5012636;28;20893;-51
2022/05/21 10:02:51;;;;;;;4.68;1.38;;;;;;;;;;5012046;28;20044;-53
2022/05/21 10:05:22;;;;;;;4.45;0.65;;;;;;;;;;5005726;28;20033;-54
2022/05/21 10:11:02;;;;;;;6.32;1.00;;;;;;;;;;5007179;28;20053;-48
2022/05/21 10:13:34;;;;;;;1.33;0.57;;;;;;;;;;5013536;28;20065;-54
2022/05/21 10:16:17;;;;;;;1.73;0.82;;;;;;;;;;5015113;28;20034;-48
2022/05/21 10:18:53;;;;;;;1.42;0.60;;;;;;;;;;5014269;28;20026;-50
2022/05/21 10:21:19;;;;;;;3.25;0.65;;;;;;;;;;5013883;28;20406;-48
2022/05/21 10:23:45;;;;;;;3.65;0.70;;;;;;;;;;5011061;28;20022;-49
2022/05/21 10:26:11;;;;;;;4.80;0.90;;;;;;;;;;5015599;28;20545;-49
2022/05/21 10:28:55;;;;;;;1.67;0.60;;;;;;;;;;5015664;28;20029;-48
2022/05/21 10:31:40;;;;;;;3.78;0.60;;;;;;;;;;5012533;28;20041;-48
2022/05/21 10:34:06;;;;;;;1.30;0.50;;;;;;;;;;5012699;28;20399;-55
2022/05/21 10:36:43;;;;;;;1.15;0.70;;;;;;;;;;5006262;28;20032;-53
2022/05/21 10:39:27;;;;;;;1.85;0.60;;;;;;;;;;5013315;28;20345;-49
2022/05/21 10:42:18;;;;;;;2.30;0.55;;;;;;;;;;5014025;28;20463;-52
2022/05/21 10:45:03;;;;;;;0.35;0.30;;;;;;;;;;5013348;28;20447;-48
2022/05/21 10:47:50;;;;;;;1.98;0.70;;;;;;;;;;5013327;28;20037;-48
2022/05/21 10:50:21;;;;;;;1.02;0.50;;;;;;;;;;5005055;28;20148;-49
2022/05/21 10:53:06;;;;;;;2.10;0.60;;;;;;;;;;5013632;28;20026;-48
2022/05/21 10:55:45;;;;;;;0.77;0.50;;;;;;;;;;5013267;28;20034;-48
2022/05/21 10:58:26;;;;;;;1.85;0.40;;;;;;;;;;5012767;28;20021;-49
2022/05/21 11:01:11;;;;;;;2.25;1.02;;;;;;;;;;5005660;28;20391;-50
2022/05/21 11:04:05;;;;;;;1.48;0.55;;;;;;;;;;5006894;28;20034;-51
2022/05/21 11:06:34;;;;;;;1.23;0.68;;;;;;;;;;5009497;28;20438;-51
2022/05/21 11:09:01;;;;;;;2.60;0.80;;;;;;;;;;5013971;28;20037;-50
2022/05/21 11:11:34;;;;;;;0.43;0.43;;;;;;;;;;5011472;28;20246;-51
2022/05/21 11:14:04;;;;;;;7.50;0.90;;;;;;;;;;5012301;28;20018;-50
2022/05/21 11:16:41;;;;;;;1.08;0.50;;;;;;;;;;5011932;28;20045;-54
2022/05/21 11:19:14;;;;;;;2.25;0.70;;;;;;;;;;5012334;28;20021;-51
2022/05/21 11:21:45;;;;;;;2.63;0.80;;;;;;;;;;5012806;28;20041;-51
2022/05/21 11:24:23;;;;;;;3.25;0.57;;;;;;;;;;5012305;28;20030;-48
2022/05/21 11:26:57;;;;;;;1.17;0.50;;;;;;;;;;5012391;28;20037;-52
2022/05/21 11:29:26;;;;;;;3.38;1.33;;;;;;;;;;5007504;28;20060;-48
2022/05/21 11:37:54;;;;;;;1.65;0.70;;;;;;;;;;5012684;28;20427;-49
2022/05/21 11:40:38;;;;;;;1.25;0.65;;;;;;;;;;5011679;28;20026;-51
2022/05/21 11:43:04;;;;;;;2.05;0.52;;;;;;;;;;5012823;28;20091;-52
2022/05/21 11:45:31;;;;;;;3.45;0.65;;;;;;;;;;5011598;28;20136;-48
2022/05/21 11:48:23;;;;;;;2.88;0.90;;;;;;;;;;5012247;28;20387;-50
2022/05/21 11:51:10;;;;;;;1.90;0.65;;;;;;;;;;5009557;28;20046;-51
2022/05/21 11:53:39;;;;;;;4.78;0.70;;;;;;;;;;5012040;28;20561;-48
2022/05/21 11:56:10;;;;;;;1.70;0.80;;;;;;;;;;5008296;28;20113;-54
2022/05/21 11:58:55;;;;;;;1.05;0.75;;;;;;;;;;5011409;28;20109;-50
2022/05/21 12:01:39;;;;;;;1.73;0.90;;;;;;;;;;5005734;28;20132;-50
2022/05/21 12:04:06;;;;;;;4.28;0.70;;;;;;;;;;4991494;28;20435;-49
2022/05/21 12:06:39;;;;;;;2.67;0.73;;;;;;;;;;5008213;28;20026;-52
2022/05/21 12:09:25;;;;;;;2.15;0.75;;;;;;;;;;5007718;28;20032;-51
2022/05/21 12:11:51;;;;;;;1.60;0.60;;;;;;;;;;5012059;28;20050;-48
2022/05/21 12:14:22;;;;;;;1.15;0.60;;;;;;;;;;5011357;28;20030;-49
2022/05/21 12:16:51;;;;;;;2.60;0.70;;;;;;;;;;5009350;28;20030;-49
2022/05/21 12:19:37;;;;;;;2.30;1.00;;;;;;;;;;5011486;28;20168;-48
2022/05/21 12:22:04;;;;;;;1.70;0.68;;;;;;;;;;5011353;28;20033;-48
2022/05/21 12:24:35;;;;;;;2.17;0.88;;;;;;;;;;5004757;28;20065;-48
2022/05/21 12:27:02;;;;;;;1.45;0.77;;;;;;;;;;5011906;28;20033;-48
2022/05/21 12:29:31;;;;;;;1.88;0.63;;;;;;;;;;5010750;28;20026;-48
2022/05/21 12:31:59;;;;;;;1.65;0.70;;;;;;;;;;5011445;28;20422;-48
2022/05/21 12:34:43;;;;;;;2.05;0.75;;;;;;;;;;5011197;28;20387;-47
2022/05/21 12:37:18;;;;;;;1.77;0.77;;;;;;;;;;5010976;28;20026;-52
2022/05/21 12:39:50;;;;;;;1.65;0.82;;;;;;;;;;5012132;28;20038;-53
2022/05/21 12:42:27;;;;;;;1.98;0.77;;;;;;;;;;5010495;28;20567;-48
2022/05/21 12:44:54;;;;;;;2.05;0.90;;;;;;;;;;5012065;28;20042;-46
2022/05/21 12:47:34;;;;;;;1.98;0.73;;;;;;;;;;5011271;28;20376;-50
2022/05/21 12:50:18;;;;;;;1.77;1.25;;;;;;;;;;5012003;28;20034;-47
2022/05/21 12:52:51;;;;;;;1.45;0.82;;;;;;;;;;5011825;28;20088;-49
2022/05/21 12:55:21;;;;;;;3.90;1.67;;;;;;;;;;4999607;28;20068;-47
2022/05/21 12:57:48;;;;;;;1.02;0.60;;;;;;;;;;5008829;28;20475;-47
2022/05/21 13:00:14;;;;;;;1.58;1.17;;;;;;;;;;5014377;28;20473;-49
2022/05/21 13:02:46;;;;;;;1.52;0.70;;;;;;;;;;5015795;28;20057;-46
2022/05/21 13:05:12;;;;;;;;;;;;;;;;;;4997428;28;20025;-50
2022/05/21 13:07:41;;;;;;;1.75;1.10;;;;;;;;;;5014728;28;19979;-48
2022/05/21 13:10:27;;;;;;;2.83;0.77;;;;;;;;;;5010190;28;20471;-49
2022/05/21 13:12:56;;;;;;;0.77;0.60;;;;;;;;;;5013583;28;20026;-50
2022/05/21 13:15:25;;;;;;;2.63;0.88;;;;;;;;;;5014740;28;20030;-47
2022/05/21 13:18:09;;;;;;;1.02;0.60;;;;;;;;;;5015446;28;20386;-49
2022/05/21 13:20:41;;;;;;;1.35;0.65;;;;;;;;;;5014578;28;20034;-46
2022/05/21 13:23:12;;;;;;;1.98;0.90;;;;;;;;;;5014882;28;20033;-48
2022/05/21 13:25:39;;;;;;;1.40;0.70;;;;;;;;;;5014770;28;20030;-47
2022/05/21 13:28:14;;;;;;;2.55;0.70;;;;;;;;;;5015610;28;20030;-48
2022/05/21 13:30:46;;;;;;;1.40;0.75;;;;;;;;;;5008372;28;20503;-48
2022/05/21 13:33:15;;;;;;;1.05;0.73;;;;;;;;;;5014691;28;20395;-47
2022/05/21 13:35:43;;;;;;;1.10;0.60;;;;;;;;;;5015219;28;20057;-48
2022/05/21 13:38:13;;;;;;;0.70;0.60;;;;;;;;;;5014778;28;20471;-47
2022/05/21 13:40:48;;;;;;;5.57;1.05;;;;;;;;;;5006241;28;20034;-46
2022/05/21 13:43:14;;;;;;;1.58;0.73;;;;;;;;;;5014175;28;20497;-47
2022/05/21 13:46:00;;;;;;;0.95;0.70;;;;;;;;;;5014576;28;20058;-49
2022/05/21 13:48:33;;;;;;;0.95;0.63;;;;;;;;;;5014075;28;20037;-47
2022/05/21 13:50:59;;;;;;;1.40;0.70;;;;;;;;;;5015023;28;20419;-46
2022/05/21 13:53:29;;;;;;;1.08;0.77;;;;;;;;;;5013764;28;20549;-50
2022/05/21 13:55:55;;;;;;;1.52;0.75;;;;;;;;;;5014854;28;20022;-46
2022/05/21 13:58:29;;;;;;;1.05;0.70;;;;;;;;;;5013744;28;20383;-48
2022/05/21 14:00:55;;;;;;;2.10;0.70;;;;;;;;;;5007627;28;20044;-48
2022/05/21 14:03:27;;;;;;;1.33;0.70;;;;;;;;;;5013799;28;20105;-50
2022/05/21 14:05:54;;;;;;;0.73;0.73;;;;;;;;;;5014524;28;20053;-47
2022/05/21 14:08:28;;;;;;;1.63;1.02;;;;;;;;;;5013493;28;20025;-49
2022/05/21 14:10:58;;;;;;;1.13;0.75;;;;;;;;;;5014157;28;20038;-48
2022/05/21 14:13:30;;;;;;;2.75;1.00;;;;;;;;;;5013635;28;20033;-48
2022/05/21 14:15:57;;;;;;;1.40;0.65;;;;;;;;;;5014547;28;20028;-47
2022/05/21 14:18:28;;;;;;;2.17;1.02;;;;;;;;;;5013320;28;20026;-47
2022/05/21 14:21:17;;;;;;;0.68;0.60;;;;;;;;;;5014402;28;20046;-48
2022/05/21 14:23:43;;;;;;;0.77;0.60;;;;;;;;;;5013539;28;20026;-47
2022/05/21 14:26:12;;;;;;;1.63;0.75;;;;;;;;;;5013991;28;20360;-47
2022/05/21 14:28:38;;;;;;;1.25;0.80;;;;;;;;;;5012245;28;20030;-47
2022/05/21 14:31:20;;;;;;;1.05;0.60;;;;;;;;;;5009658;28;20064;-48
2022/05/21 14:33:46;;;;;;;;;;;;;;;;;;5011134;28;20101;-48
2022/05/21 14:36:23;;;;;;;2.70;0.98;;;;;;;;;;5014039;28;20004;-47
2022/05/21 14:38:49;;;;;;;1.88;0.90;;;;;;;;;;5012974;28;20479;-49
2022/05/21 14:41:28;;;;;;;1.50;0.68;;;;;;;;;;5013012;28;20119;-50
2022/05/21 14:43:54;;;;;;;1.35;0.70;;;;;;;;;;5013819;28;20036;-46
2022/05/21 14:49:05;;;;;;;0.98;0.70;;;;;;;;;;5006308;28;20446;-51
2022/05/21 14:54:15;;;;;;;1.50;0.70;;;;;;;;;;5012919;28;20033;-48
2022/05/21 14:56:41;;;;;;;1.30;0.65;;;;;;;;;;5013483;28;20088;-46
2022/05/21 14:59:09;;;;;;;1.30;0.60;;;;;;;;;;5013532;28;20467;-46
2022/05/21 15:01:35;;;;;;;1.08;0.60;;;;;;;;;;5012565;28;20042;-48
2022/05/21 15:04:01;;;;;;;2.33;0.70;;;;;;;;;;5013142;28;20430;-47
2022/05/21 15:06:29;;;;;;;1.25;0.50;;;;;;;;;;5012521;28;20077;-48
2022/05/21 15:08:56;;;;;;;1.58;0.93;;;;;;;;;;5013062;28;20030;-46
2022/05/21 15:11:22;;;;;;;2.17;0.90;;;;;;;;;;5012520;28;20022;-46
2022/05/21 15:13:48;;;;;;;1.00;0.55;;;;;;;;;;5012901;28;20034;-46
2022/05/21 15:16:14;;;;;;;1.35;0.73;;;;;;;;;;5013000;28;20053;-50
2022/05/21 15:18:41;;;;;;;1.60;0.85;;;;;;;;;;5012846;28;20097;-46
2022/05/21 15:21:10;;;;;;;0.80;0.60;;;;;;;;;;5012235;28;20049;-47
2022/05/21 15:23:38;;;;;;;1.75;0.70;;;;;;;;;;5012170;28;20022;-48
2022/05/21 15:26:04;;;;;;;0.88;0.60;;;;;;;;;;5012913;28;20052;-46
2022/05/21 15:28:31;;;;;;;1.50;0.80;;;;;;;;;;5011862;28;20022;-49
2022/05/21 15:30:57;;;;;;;1.45;0.70;;;;;;;;;;5013013;28;21360;-46
2022/05/21 15:33:23;;;;;;;1.08;0.70;;;;;;;;;;5009218;28;20026;-46
2022/05/21 15:35:51;;;;;;;2.28;0.95;;;;;;;;;;5012293;28;20380;-47
2022/05/21 15:38:17;;;;;;;0.80;0.80;;;;;;;;;;5011814;28;20507;-49
2022/05/21 15:40:44;;;;;;;1.05;0.70;;;;;;;;;;5012860;28;20057;-52
2022/05/21 15:43:14;;;;;;;1.80;0.85;;;;;;;;;;5012373;28;20414;-46